sensor_id;sensor_type;location;lat;lon;timestamp;P1;durP1;ratioP1;P2;durP2;ratioP2
16828;SDS011;8531;48.078;11.968;2023-07-08T00:00:21;5.28;;;4.00;;
16828;SDS011;8531;48.078;11.968;2023-07-08T00:02:48;3.83;;;3.42;;
16828;SDS011;8531;48.078;11.968;2023-07-08T00:05:16;4.88;;;4.00;;
16828;SDS011;8531;48.078;11.968;2023-07-08T00:07:43;4.15;;;3.75;;
16828;SDS011;8531;48.078;11.968;2023-07-08T00:12:37;6.15;;;4.55;;
16828;SDS011;8531;48.078;11.968;2023-07-08T00:15:03;4.43;;;3.78;;
16828;SDS011;8531;48.078;11.968;2023-07-08T00:17:30;4.72;;;3.75;;
16828;SDS011;8531;48.078;11.968;2023-07-08T00:19:55;5.65;;;4.13;;
16828;SDS011;8531;48.078;11.968;2023-07-08T00:22:21;4.47;;;4.00;;
16828;SDS011;8531;48.078;11.968;2023-07-08T00:24:49;4.07;;;3.58;;
16828;SDS011;8531;48.078;11.968;2023-07-08T00:27:16;5.78;;;3.72;;
16828;SDS011;8531;48.078;11.968;2023-07-08T00:29:41;6.05;;;4.18;;
16828;SDS011;8531;48.078;11.968;2023-07-08T00:32:14;4.28;;;3.55;;
16828;SDS011;8531;48.078;11.968;2023-07-08T00:34:41;5.28;;;3.85;;
16828;SDS011;8531;48.078;11.968;2023-07-08T00:37:09;8.40;;;3.92;;
16828;SDS011;8531;48.078;11.968;2023-07-08T00:39:36;4.90;;;4.13;;
16828;SDS011;8531;48.078;11.968;2023-07-08T00:42:01;5.70;;;3.90;;
16828;SDS011;8531;48.078;11.968;2023-07-08T00:44:49;5.45;;;3.90;;
16828;SDS011;8531;48.078;11.968;2023-07-08T00:47:15;4.63;;;3.90;;
16828;SDS011;8531;48.078;11.968;2023-07-08T00:49:45;4.97;;;3.90;;
16828;SDS011;8531;48.078;11.968;2023-07-08T00:52:28;5.40;;;3.50;;
16828;SDS011;8531;48.078;11.968;2023-07-08T00:54:55;8.55;;;4.57;;
16828;SDS011;8531;48.078;11.968;2023-07-08T00:57:26;7.10;;;3.78;;
16828;SDS011;8531;48.078;11.968;2023-07-08T01:02:45;4.57;;;3.38;;
16828;SDS011;8531;48.078;11.968;2023-07-08T01:05:17;6.00;;;3.55;;
16828;SDS011;8531;48.078;11.968;2023-07-08T01:07:45;4.90;;;3.95;;
16828;SDS011;8531;48.078;11.968;2023-07-08T01:10:17;4.95;;;3.65;;
16828;SDS011;8531;48.078;11.968;2023-07-08T01:12:49;6.82;;;4.00;;
16828;SDS011;8531;48.078;11.968;2023-07-08T01:15:20;3.72;;;3.40;;
16828;SDS011;8531;48.078;11.968;2023-07-08T01:17:48;6.03;;;3.78;;
16828;SDS011;8531;48.078;11.968;2023-07-08T01:20:18;5.38;;;3.50;;
16828;SDS011;8531;48.078;11.968;2023-07-08T01:22:44;7.25;;;3.60;;
16828;SDS011;8531;48.078;11.968;2023-07-08T01:25:10;4.65;;;3.65;;
16828;SDS011;8531;48.078;11.968;2023-07-08T01:27:40;6.68;;;4.60;;
16828;SDS011;8531;48.078;11.968;2023-07-08T01:30:10;4.60;;;3.95;;
16828;SDS011;8531;48.078;11.968;2023-07-08T01:32:37;4.20;;;3.55;;
16828;SDS011;8531;48.078;11.968;2023-07-08T01:35:08;5.00;;;3.85;;
16828;SDS011;8531;48.078;11.968;2023-07-08T01:37:38;6.85;;;4.03;;
16828;SDS011;8531;48.078;11.968;2023-07-08T01:42:44;5.63;;;4.38;;
16828;SDS011;8531;48.078;11.968;2023-07-08T01:45:11;6.70;;;3.85;;
16828;SDS011;8531;48.078;11.968;2023-07-08T01:47:37;5.43;;;3.92;;
16828;SDS011;8531;48.078;11.968;2023-07-08T01:50:04;4.72;;;3.78;;
16828;SDS011;8531;48.078;11.968;2023-07-08T01:52:31;3.97;;;3.20;;
16828;SDS011;8531;48.078;11.968;2023-07-08T01:54:57;4.72;;;3.70;;
16828;SDS011;8531;48.078;11.968;2023-07-08T01:57:23;5.00;;;3.97;;
16828;SDS011;8531;48.078;11.968;2023-07-08T01:59:48;6.80;;;4.03;;
16828;SDS011;8531;48.078;11.968;2023-07-08T02:02:15;4.55;;;3.80;;
16828;SDS011;8531;48.078;11.968;2023-07-08T02:04:40;6.35;;;3.80;;
16828;SDS011;8531;48.078;11.968;2023-07-08T02:07:06;4.53;;;4.13;;
16828;SDS011;8531;48.078;11.968;2023-07-08T02:09:32;3.80;;;3.50;;
16828;SDS011;8531;48.078;11.968;2023-07-08T02:11:57;4.22;;;3.72;;
16828;SDS011;8531;48.078;11.968;2023-07-08T02:14:23;5.72;;;3.60;;
16828;SDS011;8531;48.078;11.968;2023-07-08T02:16:49;4.72;;;3.65;;
16828;SDS011;8531;48.078;11.968;2023-07-08T02:19:14;5.82;;;3.72;;
16828;SDS011;8531;48.078;11.968;2023-07-08T02:21:40;4.03;;;3.60;;
16828;SDS011;8531;48.078;11.968;2023-07-08T02:24:06;3.83;;;3.13;;
16828;SDS011;8531;48.078;11.968;2023-07-08T02:26:32;4.72;;;3.65;;
16828;SDS011;8531;48.078;11.968;2023-07-08T02:28:58;4.07;;;3.67;;
16828;SDS011;8531;48.078;11.968;2023-07-08T02:31:25;4.78;;;3.63;;
16828;SDS011;8531;48.078;11.968;2023-07-08T02:33:51;4.57;;;3.55;;
16828;SDS011;8531;48.078;11.968;2023-07-08T02:36:17;4.38;;;3.60;;
16828;SDS011;8531;48.078;11.968;2023-07-08T02:38:43;4.00;;;3.42;;
16828;SDS011;8531;48.078;11.968;2023-07-08T02:41:09;4.00;;;3.60;;
16828;SDS011;8531;48.078;11.968;2023-07-08T02:43:36;4.25;;;3.60;;
16828;SDS011;8531;48.078;11.968;2023-07-08T02:46:02;4.20;;;3.80;;
16828;SDS011;8531;48.078;11.968;2023-07-08T02:48:28;5.47;;;3.92;;
16828;SDS011;8531;48.078;11.968;2023-07-08T02:51:00;3.95;;;3.33;;
16828;SDS011;8531;48.078;11.968;2023-07-08T02:53:27;5.65;;;4.28;;
16828;SDS011;8531;48.078;11.968;2023-07-08T02:55:53;4.53;;;4.00;;
16828;SDS011;8531;48.078;11.968;2023-07-08T02:58:19;5.13;;;4.07;;
16828;SDS011;8531;48.078;11.968;2023-07-08T03:00:45;4.18;;;3.78;;
16828;SDS011;8531;48.078;11.968;2023-07-08T03:03:15;5.13;;;3.63;;
16828;SDS011;8531;48.078;11.968;2023-07-08T03:05:41;5.70;;;3.97;;
16828;SDS011;8531;48.078;11.968;2023-07-08T03:08:07;4.47;;;3.50;;
16828;SDS011;8531;48.078;11.968;2023-07-08T03:10:33;4.78;;;3.75;;
16828;SDS011;8531;48.078;11.968;2023-07-08T03:12:58;5.18;;;4.07;;
16828;SDS011;8531;48.078;11.968;2023-07-08T03:15:24;5.30;;;4.00;;
16828;SDS011;8531;48.078;11.968;2023-07-08T03:17:50;4.50;;;4.00;;
16828;SDS011;8531;48.078;11.968;2023-07-08T03:20:15;4.78;;;3.70;;
16828;SDS011;8531;48.078;11.968;2023-07-08T03:22:41;6.03;;;4.13;;
16828;SDS011;8531;48.078;11.968;2023-07-08T03:25:07;4.78;;;4.10;;
16828;SDS011;8531;48.078;11.968;2023-07-08T03:27:34;4.47;;;4.07;;
16828;SDS011;8531;48.078;11.968;2023-07-08T03:29:59;4.43;;;4.03;;
16828;SDS011;8531;48.078;11.968;2023-07-08T03:32:25;4.65;;;4.15;;
16828;SDS011;8531;48.078;11.968;2023-07-08T03:34:51;4.75;;;4.00;;
16828;SDS011;8531;48.078;11.968;2023-07-08T03:37:16;4.45;;;3.80;;
16828;SDS011;8531;48.078;11.968;2023-07-08T03:39:42;4.40;;;3.90;;
16828;SDS011;8531;48.078;11.968;2023-07-08T03:42:08;4.68;;;4.18;;
16828;SDS011;8531;48.078;11.968;2023-07-08T03:44:34;4.13;;;3.60;;
16828;SDS011;8531;48.078;11.968;2023-07-08T03:47:00;3.67;;;3.33;;
16828;SDS011;8531;48.078;11.968;2023-07-08T03:49:26;4.72;;;4.03;;
16828;SDS011;8531;48.078;11.968;2023-07-08T03:51:52;6.47;;;4.07;;
16828;SDS011;8531;48.078;11.968;2023-07-08T03:54:19;4.55;;;4.03;;
16828;SDS011;8531;48.078;11.968;2023-07-08T03:56:46;4.72;;;3.67;;
16828;SDS011;8531;48.078;11.968;2023-07-08T03:59:12;4.90;;;4.22;;
16828;SDS011;8531;48.078;11.968;2023-07-08T04:01:38;6.18;;;3.90;;
16828;SDS011;8531;48.078;11.968;2023-07-08T04:04:06;5.38;;;4.18;;
16828;SDS011;8531;48.078;11.968;2023-07-08T04:06:33;4.38;;;3.97;;
16828;SDS011;8531;48.078;11.968;2023-07-08T04:08:59;6.97;;;4.10;;
16828;SDS011;8531;48.078;11.968;2023-07-08T04:11:25;4.25;;;3.70;;
16828;SDS011;8531;48.078;11.968;2023-07-08T04:13:51;5.20;;;4.32;;
16828;SDS011;8531;48.078;11.968;2023-07-08T04:19:17;5.93;;;4.60;;
16828;SDS011;8531;48.078;11.968;2023-07-08T04:21:43;4.50;;;3.92;;
16828;SDS011;8531;48.078;11.968;2023-07-08T04:24:10;6.15;;;4.53;;
16828;SDS011;8531;48.078;11.968;2023-07-08T04:26:38;5.95;;;4.78;;
16828;SDS011;8531;48.078;11.968;2023-07-08T04:29:11;5.95;;;4.75;;
16828;SDS011;8531;48.078;11.968;2023-07-08T04:31:38;5.13;;;4.40;;
16828;SDS011;8531;48.078;11.968;2023-07-08T04:34:04;6.55;;;4.35;;
16828;SDS011;8531;48.078;11.968;2023-07-08T04:36:31;7.93;;;4.28;;
16828;SDS011;8531;48.078;11.968;2023-07-08T04:38:57;5.30;;;4.55;;
16828;SDS011;8531;48.078;11.968;2023-07-08T04:41:24;5.05;;;4.55;;
16828;SDS011;8531;48.078;11.968;2023-07-08T04:43:51;6.68;;;5.03;;
16828;SDS011;8531;48.078;11.968;2023-07-08T04:49:00;4.97;;;4.13;;
16828;SDS011;8531;48.078;11.968;2023-07-08T04:51:28;5.22;;;4.07;;
16828;SDS011;8531;48.078;11.968;2023-07-08T04:53:54;5.32;;;4.75;;
16828;SDS011;8531;48.078;11.968;2023-07-08T04:56:20;5.78;;;4.85;;
16828;SDS011;8531;48.078;11.968;2023-07-08T04:58:46;8.20;;;5.55;;
16828;SDS011;8531;48.078;11.968;2023-07-08T05:01:12;7.90;;;5.28;;
16828;SDS011;8531;48.078;11.968;2023-07-08T05:03:38;8.77;;;5.03;;
16828;SDS011;8531;48.078;11.968;2023-07-08T05:06:03;9.27;;;5.43;;
16828;SDS011;8531;48.078;11.968;2023-07-08T05:08:29;6.05;;;5.35;;
16828;SDS011;8531;48.078;11.968;2023-07-08T05:10:55;7.60;;;5.45;;
16828;SDS011;8531;48.078;11.968;2023-07-08T05:13:21;7.55;;;5.00;;
16828;SDS011;8531;48.078;11.968;2023-07-08T05:15:47;5.50;;;4.90;;
16828;SDS011;8531;48.078;11.968;2023-07-08T05:18:13;5.93;;;4.97;;
16828;SDS011;8531;48.078;11.968;2023-07-08T05:20:39;5.70;;;4.60;;
16828;SDS011;8531;48.078;11.968;2023-07-08T05:23:05;4.65;;;4.03;;
16828;SDS011;8531;48.078;11.968;2023-07-08T05:25:31;5.82;;;5.03;;
16828;SDS011;8531;48.078;11.968;2023-07-08T05:27:57;6.93;;;4.97;;
16828;SDS011;8531;48.078;11.968;2023-07-08T05:30:23;6.05;;;4.97;;
16828;SDS011;8531;48.078;11.968;2023-07-08T05:32:49;6.22;;;4.65;;
16828;SDS011;8531;48.078;11.968;2023-07-08T05:35:15;5.53;;;4.68;;
16828;SDS011;8531;48.078;11.968;2023-07-08T05:37:41;7.47;;;4.68;;
16828;SDS011;8531;48.078;11.968;2023-07-08T05:40:09;7.88;;;6.35;;
16828;SDS011;8531;48.078;11.968;2023-07-08T05:42:35;8.68;;;5.88;;
16828;SDS011;8531;48.078;11.968;2023-07-08T05:45:02;5.57;;;4.80;;
16828;SDS011;8531;48.078;11.968;2023-07-08T05:47:28;7.32;;;4.90;;
16828;SDS011;8531;48.078;11.968;2023-07-08T05:49:54;6.13;;;4.78;;
16828;SDS011;8531;48.078;11.968;2023-07-08T05:52:20;6.25;;;4.97;;
16828;SDS011;8531;48.078;11.968;2023-07-08T05:54:45;5.70;;;5.15;;
16828;SDS011;8531;48.078;11.968;2023-07-08T05:57:11;7.68;;;5.65;;
16828;SDS011;8531;48.078;11.968;2023-07-08T05:59:37;5.20;;;4.70;;
16828;SDS011;8531;48.078;11.968;2023-07-08T06:02:04;7.20;;;4.85;;
16828;SDS011;8531;48.078;11.968;2023-07-08T06:04:30;6.38;;;4.95;;
16828;SDS011;8531;48.078;11.968;2023-07-08T06:06:56;6.10;;;5.05;;
16828;SDS011;8531;48.078;11.968;2023-07-08T06:09:22;5.82;;;5.22;;
16828;SDS011;8531;48.078;11.968;2023-07-08T06:11:48;9.55;;;6.07;;
16828;SDS011;8531;48.078;11.968;2023-07-08T06:14:14;8.82;;;6.63;;
16828;SDS011;8531;48.078;11.968;2023-07-08T06:16:39;7.07;;;5.45;;
16828;SDS011;8531;48.078;11.968;2023-07-08T06:19:05;5.75;;;4.97;;
16828;SDS011;8531;48.078;11.968;2023-07-08T06:21:31;6.10;;;4.75;;
16828;SDS011;8531;48.078;11.968;2023-07-08T06:23:57;5.85;;;4.93;;
16828;SDS011;8531;48.078;11.968;2023-07-08T06:26:22;6.00;;;4.82;;
16828;SDS011;8531;48.078;11.968;2023-07-08T06:28:48;6.90;;;5.20;;
16828;SDS011;8531;48.078;11.968;2023-07-08T06:31:14;12.23;;;5.75;;
16828;SDS011;8531;48.078;11.968;2023-07-08T06:33:40;7.50;;;5.50;;
16828;SDS011;8531;48.078;11.968;2023-07-08T06:36:06;8.77;;;5.60;;
16828;SDS011;8531;48.078;11.968;2023-07-08T06:38:32;6.97;;;5.43;;
16828;SDS011;8531;48.078;11.968;2023-07-08T06:40:58;6.57;;;5.88;;
16828;SDS011;8531;48.078;11.968;2023-07-08T06:43:24;6.88;;;5.47;;
16828;SDS011;8531;48.078;11.968;2023-07-08T06:45:50;7.35;;;4.75;;
16828;SDS011;8531;48.078;11.968;2023-07-08T06:48:16;5.70;;;5.13;;
16828;SDS011;8531;48.078;11.968;2023-07-08T06:50:42;7.82;;;5.90;;
16828;SDS011;8531;48.078;11.968;2023-07-08T06:53:10;7.75;;;5.38;;
16828;SDS011;8531;48.078;11.968;2023-07-08T06:55:36;7.38;;;6.05;;
16828;SDS011;8531;48.078;11.968;2023-07-08T06:58:02;7.40;;;6.10;;
16828;SDS011;8531;48.078;11.968;2023-07-08T07:00:27;7.57;;;5.88;;
16828;SDS011;8531;48.078;11.968;2023-07-08T07:02:53;8.68;;;5.60;;
16828;SDS011;8531;48.078;11.968;2023-07-08T07:05:19;6.57;;;5.90;;
16828;SDS011;8531;48.078;11.968;2023-07-08T07:07:44;7.65;;;6.30;;
16828;SDS011;8531;48.078;11.968;2023-07-08T07:10:10;7.38;;;5.50;;
16828;SDS011;8531;48.078;11.968;2023-07-08T07:12:36;7.68;;;5.72;;
16828;SDS011;8531;48.078;11.968;2023-07-08T07:15:02;7.05;;;5.63;;
16828;SDS011;8531;48.078;11.968;2023-07-08T07:17:28;6.72;;;5.82;;
16828;SDS011;8531;48.078;11.968;2023-07-08T07:19:54;8.65;;;5.93;;
16828;SDS011;8531;48.078;11.968;2023-07-08T07:22:20;8.35;;;6.13;;
16828;SDS011;8531;48.078;11.968;2023-07-08T07:24:46;7.80;;;5.82;;
16828;SDS011;8531;48.078;11.968;2023-07-08T07:27:11;7.25;;;6.05;;
16828;SDS011;8531;48.078;11.968;2023-07-08T07:29:42;9.60;;;5.53;;
16828;SDS011;8531;48.078;11.968;2023-07-08T07:32:10;6.85;;;5.65;;
16828;SDS011;8531;48.078;11.968;2023-07-08T07:34:37;7.82;;;5.53;;
16828;SDS011;8531;48.078;11.968;2023-07-08T07:37:03;8.85;;;5.35;;
16828;SDS011;8531;48.078;11.968;2023-07-08T07:39:30;5.97;;;5.38;;
16828;SDS011;8531;48.078;11.968;2023-07-08T07:41:55;8.55;;;6.32;;
16828;SDS011;8531;48.078;11.968;2023-07-08T07:44:21;7.75;;;5.32;;
16828;SDS011;8531;48.078;11.968;2023-07-08T07:46:47;7.10;;;5.85;;
16828;SDS011;8531;48.078;11.968;2023-07-08T07:49:13;7.90;;;5.72;;
16828;SDS011;8531;48.078;11.968;2023-07-08T07:51:39;6.93;;;5.88;;
16828;SDS011;8531;48.078;11.968;2023-07-08T07:54:04;8.82;;;7.30;;
16828;SDS011;8531;48.078;11.968;2023-07-08T07:56:30;6.30;;;5.57;;
16828;SDS011;8531;48.078;11.968;2023-07-08T07:58:56;6.25;;;5.28;;
16828;SDS011;8531;48.078;11.968;2023-07-08T08:01:22;7.82;;;6.93;;
16828;SDS011;8531;48.078;11.968;2023-07-08T08:03:48;8.27;;;5.60;;
16828;SDS011;8531;48.078;11.968;2023-07-08T08:06:17;8.52;;;5.90;;
16828;SDS011;8531;48.078;11.968;2023-07-08T08:08:44;7.55;;;6.07;;
16828;SDS011;8531;48.078;11.968;2023-07-08T08:11:10;5.75;;;5.00;;
16828;SDS011;8531;48.078;11.968;2023-07-08T08:13:36;8.00;;;5.45;;
16828;SDS011;8531;48.078;11.968;2023-07-08T08:16:02;9.48;;;6.72;;
16828;SDS011;8531;48.078;11.968;2023-07-08T08:18:29;7.55;;;6.53;;
16828;SDS011;8531;48.078;11.968;2023-07-08T08:20:55;9.55;;;6.53;;
16828;SDS011;8531;48.078;11.968;2023-07-08T08:23:21;6.82;;;5.63;;
16828;SDS011;8531;48.078;11.968;2023-07-08T08:25:47;7.57;;;5.85;;
16828;SDS011;8531;48.078;11.968;2023-07-08T08:28:16;9.68;;;6.03;;
16828;SDS011;8531;48.078;11.968;2023-07-08T08:30:42;7.45;;;5.60;;
16828;SDS011;8531;48.078;11.968;2023-07-08T08:33:15;14.52;;;6.78;;
16828;SDS011;8531;48.078;11.968;2023-07-08T08:35:44;7.70;;;5.22;;
16828;SDS011;8531;48.078;11.968;2023-07-08T08:38:10;6.97;;;5.22;;
16828;SDS011;8531;48.078;11.968;2023-07-08T08:40:36;7.63;;;6.30;;
16828;SDS011;8531;48.078;11.968;2023-07-08T08:43:06;7.68;;;6.13;;
16828;SDS011;8531;48.078;11.968;2023-07-08T08:45:39;6.63;;;5.38;;
16828;SDS011;8531;48.078;11.968;2023-07-08T08:48:13;5.93;;;5.30;;
16828;SDS011;8531;48.078;11.968;2023-07-08T08:50:50;6.25;;;5.55;;
16828;SDS011;8531;48.078;11.968;2023-07-08T08:53:30;8.48;;;5.88;;
16828;SDS011;8531;48.078;11.968;2023-07-08T08:59:05;7.25;;;4.93;;
16828;SDS011;8531;48.078;11.968;2023-07-08T09:01:37;6.93;;;5.38;;
16828;SDS011;8531;48.078;11.968;2023-07-08T09:04:15;9.88;;;5.85;;
16828;SDS011;8531;48.078;11.968;2023-07-08T09:06:46;7.45;;;5.65;;
16828;SDS011;8531;48.078;11.968;2023-07-08T09:11:57;7.55;;;5.25;;
16828;SDS011;8531;48.078;11.968;2023-07-08T09:14:29;6.40;;;5.50;;
16828;SDS011;8531;48.078;11.968;2023-07-08T09:22:40;5.80;;;5.10;;
16828;SDS011;8531;48.078;11.968;2023-07-08T09:27:41;7.72;;;5.82;;
16828;SDS011;8531;48.078;11.968;2023-07-08T09:30:14;8.50;;;5.57;;
16828;SDS011;8531;48.078;11.968;2023-07-08T09:32:41;7.50;;;5.82;;
16828;SDS011;8531;48.078;11.968;2023-07-08T09:35:08;6.03;;;5.35;;
16828;SDS011;8531;48.078;11.968;2023-07-08T09:37:44;8.55;;;5.38;;
16828;SDS011;8531;48.078;11.968;2023-07-08T09:40:19;7.68;;;6.50;;
16828;SDS011;8531;48.078;11.968;2023-07-08T09:42:55;7.60;;;6.72;;
16828;SDS011;8531;48.078;11.968;2023-07-08T09:45:28;9.80;;;6.53;;
16828;SDS011;8531;48.078;11.968;2023-07-08T09:47:55;7.40;;;6.22;;
16828;SDS011;8531;48.078;11.968;2023-07-08T09:50:22;8.95;;;6.82;;
16828;SDS011;8531;48.078;11.968;2023-07-08T09:52:51;8.93;;;6.05;;
16828;SDS011;8531;48.078;11.968;2023-07-08T09:55:19;8.25;;;6.50;;
16828;SDS011;8531;48.078;11.968;2023-07-08T09:57:46;8.43;;;7.10;;
16828;SDS011;8531;48.078;11.968;2023-07-08T10:00:18;6.75;;;5.85;;
16828;SDS011;8531;48.078;11.968;2023-07-08T10:02:52;8.25;;;6.72;;
16828;SDS011;8531;48.078;11.968;2023-07-08T10:05:30;8.75;;;6.50;;
16828;SDS011;8531;48.078;11.968;2023-07-08T10:08:19;7.00;;;5.50;;
16828;SDS011;8531;48.078;11.968;2023-07-08T10:10:47;8.82;;;6.13;;
16828;SDS011;8531;48.078;11.968;2023-07-08T10:13:22;8.05;;;5.63;;
16828;SDS011;8531;48.078;11.968;2023-07-08T10:15:57;13.13;;;6.07;;
16828;SDS011;8531;48.078;11.968;2023-07-08T10:18:29;7.40;;;6.20;;
16828;SDS011;8531;48.078;11.968;2023-07-08T10:26:33;9.77;;;7.20;;
16828;SDS011;8531;48.078;11.968;2023-07-08T10:40:48;7.05;;;6.35;;
16828;SDS011;8531;48.078;11.968;2023-07-08T10:56:57;8.10;;;5.97;;
16828;SDS011;8531;48.078;11.968;2023-07-08T11:07:52;10.85;;;6.68;;
16828;SDS011;8531;48.078;11.968;2023-07-08T11:10:23;7.40;;;5.85;;
16828;SDS011;8531;48.078;11.968;2023-07-08T11:12:56;7.93;;;6.32;;
16828;SDS011;8531;48.078;11.968;2023-07-08T11:15:28;7.90;;;7.10;;
16828;SDS011;8531;48.078;11.968;2023-07-08T11:18:04;9.15;;;5.80;;
16828;SDS011;8531;48.078;11.968;2023-07-08T11:25:54;6.72;;;6.00;;
16828;SDS011;8531;48.078;11.968;2023-07-08T11:28:30;7.05;;;6.05;;
16828;SDS011;8531;48.078;11.968;2023-07-08T11:30:55;6.57;;;5.32;;
16828;SDS011;8531;48.078;11.968;2023-07-08T11:33:25;8.18;;;6.15;;
16828;SDS011;8531;48.078;11.968;2023-07-08T11:35:54;6.65;;;5.78;;
16828;SDS011;8531;48.078;11.968;2023-07-08T11:38:24;8.15;;;6.40;;
16828;SDS011;8531;48.078;11.968;2023-07-08T11:43:21;8.27;;;6.60;;
16828;SDS011;8531;48.078;11.968;2023-07-08T11:45:50;7.80;;;6.00;;
16828;SDS011;8531;48.078;11.968;2023-07-08T11:48:21;5.97;;;5.40;;
16828;SDS011;8531;48.078;11.968;2023-07-08T11:50:53;7.53;;;5.53;;
16828;SDS011;8531;48.078;11.968;2023-07-08T11:56:02;6.82;;;6.00;;
16828;SDS011;8531;48.078;11.968;2023-07-08T12:03:55;7.40;;;5.85;;
16828;SDS011;8531;48.078;11.968;2023-07-08T12:08:59;9.23;;;6.38;;
16828;SDS011;8531;48.078;11.968;2023-07-08T12:11:40;5.97;;;5.40;;
16828;SDS011;8531;48.078;11.968;2023-07-08T12:14:08;6.65;;;5.45;;
16828;SDS011;8531;48.078;11.968;2023-07-08T12:16:34;7.10;;;5.68;;
16828;SDS011;8531;48.078;11.968;2023-07-08T12:19:00;6.47;;;5.07;;
16828;SDS011;8531;48.078;11.968;2023-07-08T12:21:29;9.02;;;5.60;;
16828;SDS011;8531;48.078;11.968;2023-07-08T12:24:02;6.32;;;5.28;;
16828;SDS011;8531;48.078;11.968;2023-07-08T12:26:29;6.32;;;5.18;;
16828;SDS011;8531;48.078;11.968;2023-07-08T12:28:56;6.00;;;5.40;;
16828;SDS011;8531;48.078;11.968;2023-07-08T12:31:22;8.05;;;5.57;;
16828;SDS011;8531;48.078;11.968;2023-07-08T12:33:49;6.07;;;5.13;;
16828;SDS011;8531;48.078;11.968;2023-07-08T12:36:24;5.55;;;5.05;;
16828;SDS011;8531;48.078;11.968;2023-07-08T12:38:53;5.53;;;5.03;;
16828;SDS011;8531;48.078;11.968;2023-07-08T12:41:27;6.45;;;5.75;;
16828;SDS011;8531;48.078;11.968;2023-07-08T12:43:58;5.47;;;4.97;;
16828;SDS011;8531;48.078;11.968;2023-07-08T12:46:25;7.05;;;5.22;;
16828;SDS011;8531;48.078;11.968;2023-07-08T12:48:52;6.90;;;5.85;;
16828;SDS011;8531;48.078;11.968;2023-07-08T12:51:23;5.95;;;5.03;;
16828;SDS011;8531;48.078;11.968;2023-07-08T12:53:50;6.60;;;5.85;;
16828;SDS011;8531;48.078;11.968;2023-07-08T12:56:17;6.32;;;4.93;;
16828;SDS011;8531;48.078;11.968;2023-07-08T12:58:46;6.00;;;5.45;;
16828;SDS011;8531;48.078;11.968;2023-07-08T13:01:25;6.10;;;5.35;;
16828;SDS011;8531;48.078;11.968;2023-07-08T13:04:15;5.75;;;5.13;;
16828;SDS011;8531;48.078;11.968;2023-07-08T13:06:41;8.13;;;5.82;;
16828;SDS011;8531;48.078;11.968;2023-07-08T13:09:15;6.32;;;5.40;;
16828;SDS011;8531;48.078;11.968;2023-07-08T13:12:02;6.15;;;5.22;;
16828;SDS011;8531;48.078;11.968;2023-07-08T13:14:30;6.00;;;5.05;;
16828;SDS011;8531;48.078;11.968;2023-07-08T13:16:56;5.63;;;5.05;;
16828;SDS011;8531;48.078;11.968;2023-07-08T13:19:22;6.78;;;5.03;;
16828;SDS011;8531;48.078;11.968;2023-07-08T13:21:49;6.28;;;4.60;;
16828;SDS011;8531;48.078;11.968;2023-07-08T13:24:15;5.75;;;5.05;;
16828;SDS011;8531;48.078;11.968;2023-07-08T13:26:44;4.80;;;4.40;;
16828;SDS011;8531;48.078;11.968;2023-07-08T13:29:13;5.97;;;4.70;;
16828;SDS011;8531;48.078;11.968;2023-07-08T13:31:42;5.75;;;4.63;;
16828;SDS011;8531;48.078;11.968;2023-07-08T13:34:17;5.30;;;4.80;;
16828;SDS011;8531;48.078;11.968;2023-07-08T13:36:45;5.40;;;4.88;;
16828;SDS011;8531;48.078;11.968;2023-07-08T13:39:35;6.10;;;4.65;;
16828;SDS011;8531;48.078;11.968;2023-07-08T13:42:01;4.97;;;4.50;;
16828;SDS011;8531;48.078;11.968;2023-07-08T13:44:28;7.72;;;5.07;;
16828;SDS011;8531;48.078;11.968;2023-07-08T13:46:55;6.63;;;4.70;;
16828;SDS011;8531;48.078;11.968;2023-07-08T13:54:42;7.60;;;5.45;;
16828;SDS011;8531;48.078;11.968;2023-07-08T13:57:12;6.72;;;4.68;;
16828;SDS011;8531;48.078;11.968;2023-07-08T13:59:41;8.07;;;4.82;;
16828;SDS011;8531;48.078;11.968;2023-07-08T14:02:43;4.93;;;4.35;;
16828;SDS011;8531;48.078;11.968;2023-07-08T14:04:59;5.28;;;4.07;;
16828;SDS011;8531;48.078;11.968;2023-07-08T14:07:27;5.93;;;4.15;;
16828;SDS011;8531;48.078;11.968;2023-07-08T14:09:54;4.65;;;4.05;;
16828;SDS011;8531;48.078;11.968;2023-07-08T14:12:23;4.88;;;4.00;;
16828;SDS011;8531;48.078;11.968;2023-07-08T14:14:49;5.35;;;4.53;;
16828;SDS011;8531;48.078;11.968;2023-07-08T14:17:18;7.10;;;4.53;;
16828;SDS011;8531;48.078;11.968;2023-07-08T14:19:49;5.07;;;4.28;;
16828;SDS011;8531;48.078;11.968;2023-07-08T14:22:25;7.70;;;4.10;;
16828;SDS011;8531;48.078;11.968;2023-07-08T14:24:52;5.70;;;4.32;;
16828;SDS011;8531;48.078;11.968;2023-07-08T14:27:19;5.75;;;4.18;;
16828;SDS011;8531;48.078;11.968;2023-07-08T14:29:46;8.90;;;8.00;;
16828;SDS011;8531;48.078;11.968;2023-07-08T14:32:23;6.47;;;5.18;;
16828;SDS011;8531;48.078;11.968;2023-07-08T14:34:56;6.30;;;5.43;;
16828;SDS011;8531;48.078;11.968;2023-07-08T14:37:24;9.73;;;7.90;;
16828;SDS011;8531;48.078;11.968;2023-07-08T14:39:50;7.20;;;4.57;;
16828;SDS011;8531;48.078;11.968;2023-07-08T14:42:17;11.07;;;4.90;;
16828;SDS011;8531;48.078;11.968;2023-07-08T14:44:48;5.95;;;4.85;;
16828;SDS011;8531;48.078;11.968;2023-07-08T14:47:16;4.13;;;3.72;;
16828;SDS011;8531;48.078;11.968;2023-07-08T14:49:42;4.63;;;4.18;;
16828;SDS011;8531;48.078;11.968;2023-07-08T14:52:08;5.68;;;4.60;;
16828;SDS011;8531;48.078;11.968;2023-07-08T14:54:34;6.07;;;5.00;;
16828;SDS011;8531;48.078;11.968;2023-07-08T14:57:00;5.95;;;4.32;;
16828;SDS011;8531;48.078;11.968;2023-07-08T14:59:30;5.32;;;4.22;;
16828;SDS011;8531;48.078;11.968;2023-07-08T15:01:58;5.93;;;4.65;;
16828;SDS011;8531;48.078;11.968;2023-07-08T15:04:25;4.75;;;3.83;;
16828;SDS011;8531;48.078;11.968;2023-07-08T15:06:51;5.07;;;4.13;;
16828;SDS011;8531;48.078;11.968;2023-07-08T15:09:19;4.90;;;3.45;;
16828;SDS011;8531;48.078;11.968;2023-07-08T15:11:45;5.90;;;4.50;;
16828;SDS011;8531;48.078;11.968;2023-07-08T15:14:17;4.88;;;3.60;;
16828;SDS011;8531;48.078;11.968;2023-07-08T15:16:48;4.45;;;3.60;;
16828;SDS011;8531;48.078;11.968;2023-07-08T15:19:15;7.47;;;6.22;;
16828;SDS011;8531;48.078;11.968;2023-07-08T15:21:41;5.28;;;4.22;;
16828;SDS011;8531;48.078;11.968;2023-07-08T15:24:08;6.20;;;4.18;;
16828;SDS011;8531;48.078;11.968;2023-07-08T15:26:36;4.20;;;3.40;;
16828;SDS011;8531;48.078;11.968;2023-07-08T15:29:03;4.47;;;3.45;;
16828;SDS011;8531;48.078;11.968;2023-07-08T15:31:31;5.60;;;3.33;;
16828;SDS011;8531;48.078;11.968;2023-07-08T15:33:58;4.57;;;3.05;;
16828;SDS011;8531;48.078;11.968;2023-07-08T15:36:24;4.47;;;3.63;;
16828;SDS011;8531;48.078;11.968;2023-07-08T15:38:51;5.88;;;3.25;;
16828;SDS011;8531;48.078;11.968;2023-07-08T15:41:21;5.00;;;3.08;;
16828;SDS011;8531;48.078;11.968;2023-07-08T15:43:48;4.65;;;4.00;;
16828;SDS011;8531;48.078;11.968;2023-07-08T15:46:17;4.85;;;3.88;;
16828;SDS011;8531;48.078;11.968;2023-07-08T15:48:43;5.82;;;4.18;;
16828;SDS011;8531;48.078;11.968;2023-07-08T15:51:12;4.18;;;3.75;;
16828;SDS011;8531;48.078;11.968;2023-07-08T15:53:39;5.25;;;3.85;;
16828;SDS011;8531;48.078;11.968;2023-07-08T15:56:05;4.28;;;3.75;;
16828;SDS011;8531;48.078;11.968;2023-07-08T15:58:36;4.38;;;3.95;;
16828;SDS011;8531;48.078;11.968;2023-07-08T16:01:02;4.78;;;4.30;;
16828;SDS011;8531;48.078;11.968;2023-07-08T16:03:29;5.32;;;4.47;;
16828;SDS011;8531;48.078;11.968;2023-07-08T16:05:57;4.72;;;3.75;;
16828;SDS011;8531;48.078;11.968;2023-07-08T16:08:23;4.80;;;4.25;;
16828;SDS011;8531;48.078;11.968;2023-07-08T16:10:51;8.50;;;4.10;;
16828;SDS011;8531;48.078;11.968;2023-07-08T16:13:23;6.35;;;4.28;;
16828;SDS011;8531;48.078;11.968;2023-07-08T16:15:51;8.23;;;4.40;;
16828;SDS011;8531;48.078;11.968;2023-07-08T16:18:18;4.80;;;4.18;;
16828;SDS011;8531;48.078;11.968;2023-07-08T16:20:44;7.13;;;4.20;;
16828;SDS011;8531;48.078;11.968;2023-07-08T16:23:09;5.93;;;3.85;;